Time;durP1;ratioP1;P1;durP2;ratioP2;P2;SDS_P1;SDS_P2;PMS_P1;PMS_P2;Temp;Humidity;BMP_temperature;BMP_pressure;BME280_temperature;BME280_humidity;BME280_pressure;Samples;Min_cycle;Max_cycle;Signal;HPM_P1;HPM_P2
2022/09/19 00:03:29;;;;;;;;;;;;;;;;;;8381519;28;27719;-78
2022/09/19 00:07:29;;;;;;;;;;;;;;;;;;8381672;28;28520;-77
2022/09/19 00:11:29;;;;;;;;;;;;;;;;;;8385455;28;28012;-78
2022/09/19 00:15:30;;;;;;;;;;;;;;;;;;8379652;28;28626;-78
2022/09/19 00:19:30;;;;;;;;;;;;;;;;;;8380675;28;27941;-77
2022/09/19 00:27:49;;;;;;;;;;;;;;;;;;8380260;28;27393;-78
2022/09/19 00:31:49;;;;;;;;;;;;;;;;;;8378250;28;28290;-78
2022/09/19 00:35:54;;;;;;;;;;;;;;;;;;8377600;28;27318;-78
2022/09/19 00:39:55;;;;;;;;;;;;;;;;;;8362814;28;28300;-78
2022/09/19 00:43:55;;;;;;;;;;;;;;;;;;8379671;28;27430;-79
2022/09/19 00:47:55;;;;;;;;;;;;;;;;;;8380565;28;27424;-78
2022/09/19 00:51:55;;;;;;;;;;;;;;;;;;8379550;28;27298;-78
2022/09/19 00:55:55;;;;;;;;;;;;;;;;;;8381206;28;28482;-78
2022/09/19 00:59:55;;;;;;;;;;;;;;;;;;8378236;28;29481;-79
2022/09/19 01:03:55;;;;;;;;;;;;;;;;;;8373248;28;27507;-76
2022/09/19 01:07:56;;;;;;;;;;;;;;;;;;8375340;28;27681;-77
2022/09/19 01:11:57;;;;;;;;;;;;;;;;;;8381334;28;27604;-77
2022/09/19 01:15:57;;;;;;;;;;;;;;;;;;8380039;28;28005;-78
2022/09/19 01:19:57;;;;;;;;;;;;;;;;;;8380269;28;27287;-78
2022/09/19 01:23:58;;;;;;;;;;;;;;;;;;8367846;28;28509;-78
2022/09/19 01:28:01;;;;;;;;;;;;;;;;;;8378648;28;28240;-78
2022/09/19 01:32:01;;;;;;;;;;;;;;;;;;8368700;28;28427;-77
2022/09/19 01:36:01;;;;;;;;;;;;;;;;;;8376785;28;27212;-78
2022/09/19 01:40:01;;;;;;;;;;;;;;;;;;8377453;28;27939;-78
2022/09/19 01:44:05;;;;;;;;;;;;;;;;;;8383213;28;27852;-77
2022/09/19 01:48:06;;;;;;;;;;;;;;;;;;8381380;28;27246;-78
2022/09/19 01:52:06;;;;;;;;;;;;;;;;;;8381491;28;28034;-78
2022/09/19 01:56:06;;;;;;;;;;;;;;;;;;8378077;28;27631;-78
2022/09/19 02:00:06;;;;;;;;;;;;;;;;;;8382997;28;27939;-78
2022/09/19 02:04:06;;;;;;;;;;;;;;;;;;8379142;28;27979;-78
2022/09/19 02:08:08;;;;;;;;;;;;;;;;;;8378944;28;27368;-78
2022/09/19 02:12:09;;;;;;;;;;;;;;;;;;8361966;28;28551;-78
2022/09/19 02:16:09;;;;;;;;;;;;;;;;;;8379311;28;27443;-77
2022/09/19 02:20:10;;;;;;;;;;;;;;;;;;8381673;28;27494;-78
2022/09/19 02:24:13;;;;;;;;;;;;;;;;;;8385861;28;48812;-77
2022/09/19 02:28:13;;;;;;;;;;;;;;;;;;8384169;28;27486;-77
2022/09/19 02:32:16;;;;;;;;;;;;;;;;;;8380377;28;29487;-78
2022/09/19 02:36:16;;;;;;;;;;;;;;;;;;8379820;28;27201;-78
2022/09/19 02:40:16;;;;;;;;;;;;;;;;;;8367762;28;28493;-78
2022/09/19 02:44:19;;;;;;;;;;;;;;;;;;8385603;28;28456;-77
2022/09/19 02:48:19;;;;;;;;;;;;;;;;;;8382678;28;27403;-77
2022/09/19 02:52:20;;;;;;;;;;;;;;;;;;8381899;28;28483;-77
2022/09/19 02:56:21;;;;;;;;;;;;;;;;;;8381267;28;27435;-78
2022/09/19 03:00:21;;;;;;;;;;;;;;;;;;8379746;28;28494;-78
2022/09/19 03:04:21;;;;;;;;;;;;;;;;;;8384438;28;27728;-78
2022/09/19 03:08:24;;;;;;;;;;;;;;;;;;8382781;28;27939;-78
2022/09/19 03:12:24;;;;;;;;;;;;;;;;;;8368341;28;28754;-76
2022/09/19 03:16:24;;;;;;;;;;;;;;;;;;8379077;28;28179;-77
2022/09/19 03:20:24;;;;;;;;;;;;;;;;;;8374367;28;28232;-78
2022/09/19 03:24:26;;;;;;;;;;;;;;;;;;8383297;28;27419;-78
2022/09/19 03:28:26;;;;;;;;;;;;;;;;;;8379885;28;27455;-77
2022/09/19 03:32:27;;;;;;;;;;;;;;;;;;8375098;28;28241;-78
2022/09/19 03:36:33;;;;;;;;;;;;;;;;;;8373975;28;28639;-78
2022/09/19 03:40:33;;;;;;;;;;;;;;;;;;8375910;28;28814;-78
2022/09/19 03:44:33;;;;;;;;;;;;;;;;;;8380838;28;28303;-77
2022/09/19 03:48:35;;;;;;;;;;;;;;;;;;8376078;28;27477;-79
2022/09/19 03:52:35;;;;;;;;;;;;;;;;;;8381948;28;27184;-77
2022/09/19 03:56:35;;;;;;;;;;;;;;;;;;8383523;28;27962;-77
2022/09/19 04:00:35;;;;;;;;;;;;;;;;;;8379871;28;27390;-77
2022/09/19 04:04:35;;;;;;;;;;;;;;;;;;8382599;28;27896;-78
2022/09/19 04:08:36;;;;;;;;;;;;;;;;;;8380710;28;29026;-78
2022/09/19 04:12:36;;;;;;;;;;;;;;;;;;8383296;28;28744;-78
2022/09/19 04:16:36;;;;;;;;;;;;;;;;;;8378649;28;27740;-77
2022/09/19 04:20:38;;;;;;;;;;;;;;;;;;8377208;28;28090;-78
2022/09/19 04:24:40;;;;;;;;;;;;;;;;;;8359433;28;28384;-77
2022/09/19 04:28:41;;;;;;;;;;;;;;;;;;8377029;28;27102;-79
2022/09/19 04:32:42;;;;;;;;;;;;;;;;;;8375868;28;27941;-78
2022/09/19 04:36:43;;;;;;;;;;;;;;;;;;8357831;28;29192;-78
2022/09/19 04:40:44;;;;;;;;;;;;;;;;;;8373327;28;29143;-76
2022/09/19 04:44:44;;;;;;;;;;;;;;;;;;8361216;28;28715;-78
2022/09/19 04:48:45;;;;;;;;;;;;;;;;;;8378806;28;27400;-78
2022/09/19 04:52:45;;;;;;;;;;;;;;;;;;8363004;28;27321;-77
2022/09/19 04:56:46;;;;;;;;;;;;;;;;;;8378256;28;28097;-77
2022/09/19 05:00:46;;;;;;;;;;;;;;;;;;8377561;28;27800;-77
2022/09/19 05:04:46;;;;;;;;;;;;;;;;;;8376157;28;28180;-77
2022/09/19 05:08:46;;;;;;;;;;;;;;;;;;8375239;28;27641;-77
2022/09/19 05:12:47;;;;;;;;;;;;;;;;;;8356534;28;29528;-77
2022/09/19 05:16:49;;;;;;;;;;;;;;;;;;8377449;28;27585;-77
2022/09/19 05:20:51;;;;;;;;;;;;;;;;;;8375528;28;27189;-77
2022/09/19 05:24:52;;;;;;;;;;;;;;;;;;8376141;28;27388;-78
2022/09/19 05:28:52;;;;;;;;;;;;;;;;;;8378101;28;27493;-78
2022/09/19 05:32:52;;;;;;;;;;;;;;;;;;8372698;28;27419;-79
2022/09/19 05:36:52;;;;;;;;;;;;;;;;;;8379757;28;27869;-77
2022/09/19 05:40:52;;;;;;;;;;;;;;;;;;8378214;28;27303;-78
2022/09/19 05:44:54;;;;;;;;;;;;;;;;;;8379965;28;28007;-78
2022/09/19 05:48:54;;;;;;;;;;;;;;;;;;8379839;28;27896;-78
2022/09/19 05:57:13;;;;;;;;;;;;;;;;;;8380695;28;27386;-78
2022/09/19 06:01:14;;;;;;;;;;;;;;;;;;8379499;28;28147;-78
2022/09/19 06:05:14;;;;;;;;;;;;;;;;;;8372489;28;28928;-77
2022/09/19 06:09:14;;;;;;;;;;;;;;;;;;8381075;28;28660;-78
2022/09/19 06:13:14;;;;;;;;;;;;;;;;;;8367873;28;28176;-78
2022/09/19 06:17:16;;;;;;;;;;;;;;;;;;8370331;28;28324;-77
2022/09/19 06:21:16;;;;;;;;;;;;;;;;;;8384510;28;27183;-78
2022/09/19 06:25:16;;;;;;;;;;;;;;;;;;8381705;28;27098;-76
2022/09/19 06:29:17;;;;;;;;;;;;;;;;;;8379902;28;28744;-78
2022/09/19 06:33:17;;;;;;;;;;;;;;;;;;8388807;28;27995;-77
2022/09/19 06:37:18;;;;;;;;;;;;;;;;;;8388640;28;27378;-78
2022/09/19 06:41:18;;;;;;;;;;;;;;;;;;8390055;28;28313;-77
2022/09/19 06:45:19;;;;;;;;;;;;;;;;;;8383346;28;27459;-77
2022/09/19 06:49:19;;;;;;;;;;;;;;;;;;8380697;28;27288;-78
2022/09/19 06:53:19;;;;;;;;;;;;;;;;;;8384964;28;28274;-78
2022/09/19 06:57:19;;;;;;;;;;;;;;;;;;8386304;28;28164;-79
2022/09/19 07:01:19;;;;;;;;;;;;;;;;;;8387491;28;28000;-78
2022/09/19 07:05:19;;;;;;;;;;;;;;;;;;8367496;28;29163;-79
2022/09/19 07:09:19;;;;;;;;;;;;;;;;;;8364106;28;28801;-78
2022/09/19 07:13:20;;;;;;;;;;;;;;;;;;8382564;28;27950;-79
2022/09/19 07:17:20;;;;;;;;;;;;;;;;;;8384334;28;27311;-78
2022/09/19 07:21:20;;;;;;;;;;;;;;;;;;8379853;28;27482;-79
2022/09/19 07:25:20;;;;;;;;;;;;;;;;;;8383801;28;27250;-78
2022/09/19 07:29:22;;;;;;;;;;;;;;;;;;8379569;28;27797;-78
2022/09/19 07:33:23;;;;;;;;;;;;;;;;;;8380267;28;28053;-79
2022/09/19 07:37:23;;;;;;;;;;;;;;;;;;8368201;28;28318;-78
2022/09/19 07:41:24;;;;;;;;;;;;;;;;;;8383336;28;27505;-79
2022/09/19 07:45:24;;;;;;;;;;;;;;;;;;8378189;28;27408;-79
2022/09/19 07:49:24;;;;;;;;;;;;;;;;;;8382321;28;27609;-79
2022/09/19 07:53:24;;;;;;;;;;;;;;;;;;8377915;28;28751;-80
2022/09/19 07:57:24;;;;;;;;;;;;;;;;;;8383654;28;28229;-80
2022/09/19 08:01:25;;;;;;;;;;;;;;;;;;8380240;28;27223;-79
2022/09/19 08:05:25;;;;;;;;;;;;;;;;;;8366455;28;28407;-79
2022/09/19 08:09:25;;;;;;;;;;;;;;;;;;8382025;28;28700;-78
2022/09/19 08:13:27;;;;;;;;;;;;;;;;;;8377661;28;28652;-78
2022/09/19 08:17:27;;;;;;;;;;;;;;;;;;8383553;28;27311;-79
2022/09/19 08:21:27;;;;;;;;;;;;;;;;;;8382261;28;28405;-79
2022/09/19 08:25:27;;;;;;;;;;;;;;;;;;8384006;28;27381;-79
2022/09/19 08:29:28;;;;;;;;;;;;;;;;;;8382959;28;27472;-79
2022/09/19 08:33:29;;;;;;;;;;;;;;;;;;8365235;28;28879;-77
2022/09/19 08:37:30;;;;;;;;;;;;;;;;;;8381565;28;27419;-79
2022/09/19 08:41:30;;;;;;;;;;;;;;;;;;8380993;28;28061;-78
2022/09/19 08:45:30;;;;;;;;;;;;;;;;;;8378053;28;28082;-79
2022/09/19 08:49:31;;;;;;;;;;;;;;;;;;8375204;28;28376;-78
2022/09/19 08:53:32;;;;;;;;;;;;;;;;;;8376880;28;27320;-78
2022/09/19 08:57:32;;;;;;;;;;;;;;;;;;8383580;28;27350;-78
2022/09/19 09:01:33;;;;;;;;;;;;;;;;;;8377156;28;27224;-78
2022/09/19 09:05:33;;;;;;;;;;;;;;;;;;8377166;28;27444;-78
2022/09/19 09:09:33;;;;;;;;;;;;;;;;;;8376265;28;27444;-78
2022/09/19 09:13:36;;;;;;;;;;;;;;;;;;8380255;28;27746;-78
2022/09/19 09:17:36;;;;;;;;;;;;;;;;;;8364031;28;28689;-78
2022/09/19 09:21:36;;;;;;;;;;;;;;;;;;8373085;28;28227;-78
2022/09/19 09:25:36;;;;;;;;;;;;;;;;;;8381598;28;28022;-77
2022/09/19 09:29:36;;;;;;;;;;;;;;;;;;8378864;28;27472;-79
2022/09/19 09:33:37;;;;;;;;;;;;;;;;;;8376819;28;27357;-78
2022/09/19 09:37:40;;;;;;;;;;;;;;;;;;8377934;28;27882;-79
2022/09/19 09:41:47;;;;;;;;;;;;;;;;;;8380173;28;27345;-80
2022/09/19 09:45:49;;;;;;;;;;;;;;;;;;8375179;28;28111;-78
2022/09/19 09:49:49;;;;;;;;;;;;;;;;;;8365664;28;28451;-79
2022/09/19 09:53:49;;;;;;;;;;;;;;;;;;8362427;28;28830;-80
2022/09/19 09:57:49;;;;;;;;;;;;;;;;;;8364631;28;29811;-80
2022/09/19 10:06:08;;;;;;;;;;;;;;;;;;8376667;28;27548;-81
2022/09/19 10:10:08;;;;;;;;;;;;;;;;;;8373889;28;28373;-81
2022/09/19 10:14:12;;;;;;;;;;;;;;;;;;8358300;28;28225;-78
2022/09/19 10:18:13;;;;;;;;;;;;;;;;;;8375762;28;28203;-80
2022/09/19 10:22:17;;;;;;;;;;;;;;;;;;8372076;28;28208;-79
2022/09/19 10:26:19;;;;;;;;;;;;;;;;;;8379119;28;28363;-79
2022/09/19 10:30:19;;;;;;;;;;;;;;;;;;8381384;28;27411;-80
2022/09/19 10:34:20;;;;;;;;;;;;;;;;;;8379238;28;28054;-78
2022/09/19 10:38:21;;;;;;;;;;;;;;;;;;8383221;28;27208;-79
2022/09/19 10:42:21;;;;;;;;;;;;;;;;;;8371414;28;28299;-79
2022/09/19 10:46:21;;;;;;;;;;;;;;;;;;8385867;28;27609;-77
2022/09/19 10:50:21;;;;;;;;;;;;;;;;;;8381905;28;28182;-78
2022/09/19 10:54:22;;;;;;;;;;;;;;;;;;8371387;28;28175;-78
2022/09/19 10:58:26;;;;;;;;;;;;;;;;;;8385863;28;27489;-78
2022/09/19 11:02:27;;;;;;;;;;;;;;;;;;8379188;28;28682;-79
2022/09/19 11:06:27;;;;;;;;;;;;;;;;;;8383180;28;27194;-79
2022/09/19 11:10:28;;;;;;;;;;;;;;;;;;8367954;28;28484;-79
2022/09/19 11:14:32;;;;;;;;;;;;;;;;;;8377386;28;28226;-78
2022/09/19 11:18:33;;;;;;;;;;;;;;;;;;8380062;28;28000;-80
2022/09/19 11:22:33;;;;;;;;;;;;;;;;;;8383103;28;28218;-79
2022/09/19 11:26:33;;;;;;;;;;;;;;;;;;8382640;28;27437;-80
2022/09/19 11:30:33;;;;;;;;;;;;;;;;;;8381467;28;27252;-79
2022/09/19 11:34:36;;;;;;;;;;;;;;;;;;8383937;28;28484;-78
2022/09/19 11:38:36;;;;;;;;;;;;;;;;;;8362988;28;28261;-78
2022/09/19 11:42:36;;;;;;;;;;;;;;;;;;8378420;28;28011;-79
2022/09/19 11:46:40;;;;;;;;;;;;;;;;;;8377021;28;27369;-78
2022/09/19 11:50:40;;;;;;;;;;;;;;;;;;8375088;28;28117;-78
2022/09/19 11:54:44;;;;;;;;;;;;;;;;;;8377601;28;28087;-77
2022/09/19 11:58:46;;;;;;;;;;;;;;;;;;8380869;28;27299;-79
2022/09/19 12:02:46;;;;;;;;;;;;;;;;;;8380744;28;27586;-79
2022/09/19 12:06:47;;;;;;;;;;;;;;;;;;8379631;28;27555;-79
2022/09/19 12:10:48;;;;;;;;;;;;;;;;;;8381263;28;28086;-78
2022/09/19 12:14:49;;;;;;;;;;;;;;;;;;8362789;28;28809;-76
2022/09/19 12:18:50;;;;;;;;;;;;;;;;;;8365625;28;28227;-79
2022/09/19 12:22:50;;;;;;;;;;;;;;;;;;8380276;28;28937;-78
2022/09/19 12:26:53;;;;;;;;;;;;;;;;;;8378779;28;28160;-78
2022/09/19 12:30:58;;;;;;;;;;;;;;;;;;8377902;28;27392;-78
2022/09/19 12:34:59;;;;;;;;;;;;;;;;;;8366504;28;28308;-80
2022/09/19 12:39:00;;;;;;;;;;;;;;;;;;8377546;28;27525;-79
2022/09/19 12:43:01;;;;;;;;;;;;;;;;;;8366853;28;29343;-79
2022/09/19 12:47:01;;;;;;;;;;;;;;;;;;8368510;28;28634;-79
2022/09/19 12:51:02;;;;;;;;;;;;;;;;;;8379892;28;27237;-78
2022/09/19 12:55:03;;;;;;;;;;;;;;;;;;8369483;28;28487;-79
2022/09/19 12:59:05;;;;;;;;;;;;;;;;;;8364528;28;28282;-77
2022/09/19 13:03:05;;;;;;;;;;;;;;;;;;8378855;28;28118;-80
2022/09/19 13:07:09;;;;;;;;;;;;;;;;;;8377082;28;29258;-79
2022/09/19 13:11:09;;;;;;;;;;;;;;;;;;8370449;28;28289;-80
2022/09/19 13:15:09;;;;;;;;;;;;;;;;;;8375625;28;29194;-79
2022/09/19 13:23:38;;;;;;;;;;;;;;;;;;8379918;28;27114;-79
2022/09/19 13:27:38;;;;;;;;;;;;;;;;;;8375357;28;28816;-79
2022/09/19 13:31:39;;;;;;;;;;;;;;;;;;8377791;28;27149;-80
2022/09/19 13:35:39;;;;;;;;;;;;;;;;;;8381795;28;27218;-80
2022/09/19 13:39:39;;;;;;;;;;;;;;;;;;8374745;28;27945;-79
2022/09/19 13:43:41;;;;;;;;;;;;;;;;;;8378100;28;27304;-80
2022/09/19 13:47:41;;;;;;;;;;;;;;;;;;8375799;28;29489;-77
2022/09/19 13:51:41;;;;;;;;;;;;;;;;;;8379596;28;27317;-78
2022/09/19 13:55:42;;;;;;;;;;;;;;;;;;8364705;28;28533;-79
2022/09/19 13:59:43;;;;;;;;;;;;;;;;;;8358903;28;29581;-80
2022/09/19 14:03:43;;;;;;;;;;;;;;;;;;8374902;28;27251;-79
2022/09/19 14:07:45;;;;;;;;;;;;;;;;;;8376756;28;28323;-80
2022/09/19 14:11:45;;;;;;;;;;;;;;;;;;8361430;28;28582;-79
2022/09/19 14:15:45;;;;;;;;;;;;;;;;;;8381239;28;27766;-80
2022/09/19 14:19:46;;;;;;;;;;;;;;;;;;8385853;28;27984;-82
2022/09/19 14:23:46;;;;;;;;;;;;;;;;;;8377122;28;28378;-79
2022/09/19 14:27:46;;;;;;;;;;;;;;;;;;8384452;28;28853;-79
2022/09/19 14:31:46;;;;;;;;;;;;;;;;;;8380597;28;28691;-79
2022/09/19 14:35:46;;;;;;;;;;;;;;;;;;8379309;28;29385;-79
2022/09/19 14:39:47;;;;;;;;;;;;;;;;;;8385288;28;27438;-80
2022/09/19 14:43:47;;;;;;;;;;;;;;;;;;8383453;28;28295;-78
2022/09/19 14:47:50;;;;;;;;;;;;;;;;;;8365832;28;28558;-78
2022/09/19 14:51:51;;;;;;;;;;;;;;;;;;8380632;28;27306;-79
2022/09/19 14:55:51;;;;;;;;;;;;;;;;;;8378834;28;27535;-79
2022/09/19 14:59:52;;;;;;;;;;;;;;;;;;8366100;28;28161;-78
2022/09/19 15:03:52;;;;;;;;;;;;;;;;;;8367100;28;28295;-78
2022/09/19 15:07:53;;;;;;;;;;;;;;;;;;8365582;28;28769;-80
2022/09/19 15:11:54;;;;;;;;;;;;;;;;;;8371646;28;27717;-78
2022/09/19 15:15:54;;;;;;;;;;;;;;;;;;8374779;28;27243;-79
2022/09/19 15:19:54;;;;;;;;;;;;;;;;;;8377813;28;27460;-78
2022/09/19 15:23:55;;;;;;;;;;;;;;;;;;8386120;28;28744;-81
2022/09/19 15:27:55;;;;;;;;;;;;;;;;;;8393335;28;27825;-81
2022/09/19 15:31:55;;;;;;;;;;;;;;;;;;8386986;28;28382;-80
2022/09/19 15:35:59;;;;;;;;;;;;;;;;;;8383735;28;28079;-79
2022/09/19 15:40:00;;;;;;;;;;;;;;;;;;8381515;28;28700;-77
2022/09/19 15:44:01;;;;;;;;;;;;;;;;;;8383388;28;27854;-79
2022/09/19 15:48:01;;;;;;;;;;;;;;;;;;8373251;28;28543;-81
2022/09/19 15:52:01;;;;;;;;;;;;;;;;;;8382523;28;28018;-79
2022/09/19 15:56:02;;;;;;;;;;;;;;;;;;8386942;28;27428;-79
2022/09/19 16:00:02;;;;;;;;;;;;;;;;;;8390346;28;27546;-79
2022/09/19 16:04:02;;;;;;;;;;;;;;;;;;8370383;28;28234;-77
2022/09/19 16:12:21;;;;;;;;;;;;;;;;;;8381976;28;27530;-79
2022/09/19 16:16:26;;;;;;;;;;;;;;;;;;8386539;28;27576;-80
2022/09/19 16:20:26;;;;;;;;;;;;;;;;;;8384698;28;28503;-78
2022/09/19 16:24:26;;;;;;;;;;;;;;;;;;8376007;28;28430;-78
2022/09/19 16:28:26;;;;;;;;;;;;;;;;;;8372958;28;28660;-82
2022/09/19 16:32:29;;;;;;;;;;;;;;;;;;8383266;28;29493;-81
2022/09/19 16:36:29;;;;;;;;;;;;;;;;;;8365075;28;28285;-81
2022/09/19 16:40:30;;;;;;;;;;;;;;;;;;8390031;28;27216;-79
2022/09/19 16:44:30;;;;;;;;;;;;;;;;;;8388428;28;28620;-77
2022/09/19 16:48:30;;;;;;;;;;;;;;;;;;8378326;28;28610;-79
2022/09/19 16:52:30;;;;;;;;;;;;;;;;;;8390179;28;28407;-81
2022/09/19 16:56:30;;;;;;;;;;;;;;;;;;8375317;28;28299;-80
2022/09/19 17:00:30;;;;;;;;;;;;;;;;;;8383900;28;28530;-80
2022/09/19 17:04:31;;;;;;;;;;;;;;;;;;8387969;28;27504;-81
2022/09/19 17:08:31;;;;;;;;;;;;;;;;;;8388441;28;28729;-80
2022/09/19 17:12:31;;;;;;;;;;;;;;;;;;8374925;28;28418;-79
2022/09/19 17:16:31;;;;;;;;;;;;;;;;;;8371165;28;28741;-83
2022/09/19 17:20:32;;;;;;;;;;;;;;;;;;8384159;28;27461;-77
2022/09/19 17:24:32;;;;;;;;;;;;;;;;;;8383041;28;27306;-78
2022/09/19 17:28:35;;;;;;;;;;;;;;;;;;8373733;28;28683;-77
2022/09/19 17:32:35;;;;;;;;;;;;;;;;;;8375147;28;28318;-78
2022/09/19 17:36:35;;;;;;;;;;;;;;;;;;8373488;28;29543;-77
2022/09/19 17:40:35;;;;;;;;;;;;;;;;;;8383948;28;28208;-78
2022/09/19 17:44:36;;;;;;;;;;;;;;;;;;8387619;28;27655;-83
2022/09/19 17:48:36;;;;;;;;;;;;;;;;;;8380888;28;30070;-79
2022/09/19 17:52:36;;;;;;;;;;;;;;;;;;8382645;28;27116;-81
2022/09/19 17:56:36;;;;;;;;;;;;;;;;;;8380378;28;27155;-79
2022/09/19 18:00:36;;;;;;;;;;;;;;;;;;8377593;28;28776;-79
2022/09/19 18:04:36;;;;;;;;;;;;;;;;;;8380742;28;27850;-78
2022/09/19 18:08:37;;;;;;;;;;;;;;;;;;8374815;28;28613;-78
2022/09/19 18:12:37;;;;;;;;;;;;;;;;;;8380133;28;27511;-80
2022/09/19 18:16:39;;;;;;;;;;;;;;;;;;8394655;28;28625;-82
2022/09/19 18:20:40;;;;;;;;;;;;;;;;;;8379698;28;28358;-78
2022/09/19 18:24:41;;;;;;;;;;;;;;;;;;8391356;28;27552;-77
2022/09/19 18:28:41;;;;;;;;;;;;;;;;;;8390152;28;28189;-79
2022/09/19 18:32:41;;;;;;;;;;;;;;;;;;8392030;28;27438;-81
2022/09/19 18:36:41;;;;;;;;;;;;;;;;;;8389126;28;28116;-83
2022/09/19 18:40:42;;;;;;;;;;;;;;;;;;8388719;28;28425;-80
2022/09/19 18:44:42;;;;;;;;;;;;;;;;;;8393996;28;27720;-78
2022/09/19 18:48:42;;;;;;;;;;;;;;;;;;8376655;28;28433;-79
2022/09/19 18:52:43;;;;;;;;;;;;;;;;;;8390050;28;28193;-78
2022/09/19 18:56:43;;;;;;;;;;;;;;;;;;8388640;28;28346;-79
2022/09/19 19:00:46;;;;;;;;;;;;;;;;;;8392553;28;27319;-78
2022/09/19 19:04:47;;;;;;;;;;;;;;;;;;8392150;28;28180;-81
2022/09/19 19:08:48;;;;;;;;;;;;;;;;;;8388936;28;28955;-82
2022/09/19 19:12:48;;;;;;;;;;;;;;;;;;8379806;28;28238;-81
2022/09/19 19:16:49;;;;;;;;;;;;;;;;;;8391602;28;27505;-79
2022/09/19 19:20:49;;;;;;;;;;;;;;;;;;8390753;28;27249;-80
2022/09/19 19:24:49;;;;;;;;;;;;;;;;;;8389715;28;27417;-80
2022/09/19 19:28:49;;;;;;;;;;;;;;;;;;8371670;28;28183;-78
2022/09/19 19:32:49;;;;;;;;;;;;;;;;;;8382156;28;28835;-78
2022/09/19 19:36:49;;;;;;;;;;;;;;;;;;8366354;28;28198;-82
2022/09/19 19:40:49;;;;;;;;;;;;;;;;;;8383997;28;27417;-79
2022/09/19 19:44:50;;;;;;;;;;;;;;;;;;8371420;28;28651;-77
2022/09/19 19:48:50;;;;;;;;;;;;;;;;;;8386136;28;28676;-81
2022/09/19 19:52:50;;;;;;;;;;;;;;;;;;8387132;28;27449;-80
2022/09/19 19:56:50;;;;;;;;;;;;;;;;;;8389513;28;27319;-79
2022/09/19 20:00:50;;;;;;;;;;;;;;;;;;8385926;28;27374;-82
2022/09/19 20:04:51;;;;;;;;;;;;;;;;;;8390504;28;28587;-79
2022/09/19 20:08:51;;;;;;;;;;;;;;;;;;8373722;28;28227;-80
2022/09/19 20:12:51;;;;;;;;;;;;;;;;;;8374999;28;28198;-78
2022/09/19 20:16:51;;;;;;;;;;;;;;;;;;8388770;28;27616;-78
2022/09/19 20:20:52;;;;;;;;;;;;;;;;;;8377753;28;28176;-76
2022/09/19 20:24:52;;;;;;;;;;;;;;;;;;8361008;28;28251;-78
2022/09/19 20:28:52;;;;;;;;;;;;;;;;;;8361569;28;28326;-77
2022/09/19 20:33:01;;;;;;;;;;;;;;;;;;8488357;27;27675;-82
2022/09/19 20:37:01;;;;;;;;;;;;;;;;;;8482655;27;29282;-78
2022/09/19 20:41:01;;;;;;;;;;;;;;;;;;8486482;27;28145;-81
2022/09/19 20:45:01;;;;;;;;;;;;;;;;;;8478223;27;27821;-81
2022/09/19 20:49:01;;;;;;;;;;;;;;;;;;8481847;27;28290;-79
2022/09/19 20:53:01;;;;;;;;;;;;;;;;;;8485365;27;28670;-79
2022/09/19 20:57:02;;;;;;;;;;;;;;;;;;8485497;27;28458;-82
2022/09/19 21:01:02;;;;;;;;;;;;;;;;;;8491953;27;28527;-83
2022/09/19 21:05:02;;;;;;;;;;;;;;;;;;8482776;27;28250;-79
2022/09/19 21:09:02;;;;;;;;;;;;;;;;;;8474923;27;27638;-80
2022/09/19 21:13:02;;;;;;;;;;;;;;;;;;8483451;27;28578;-81
2022/09/19 21:17:03;;;;;;;;;;;;;;;;;;8483721;27;28170;-79
2022/09/19 21:21:03;;;;;;;;;;;;;;;;;;8478657;27;28023;-81
2022/09/19 21:25:03;;;;;;;;;;;;;;;;;;8481123;27;27386;-82
2022/09/19 21:29:03;;;;;;;;;;;;;;;;;;8482173;27;27585;-82
2022/09/19 21:33:03;;;;;;;;;;;;;;;;;;8481759;27;27374;-83
2022/09/19 21:37:03;;;;;;;;;;;;;;;;;;8480777;27;27569;-82
2022/09/19 21:41:03;;;;;;;;;;;;;;;;;;8479837;27;28248;-81
2022/09/19 21:45:03;;;;;;;;;;;;;;;;;;8464900;27;27409;-80
2022/09/19 21:49:04;;;;;;;;;;;;;;;;;;8456051;27;27505;-81
2022/09/19 21:53:04;;;;;;;;;;;;;;;;;;8454802;27;28352;-78
2022/09/19 21:57:04;;;;;;;;;;;;;;;;;;8460044;27;28506;-79
2022/09/19 22:01:06;;;;;;;;;;;;;;;;;;8454860;27;28420;-80
2022/09/19 22:05:06;;;;;;;;;;;;;;;;;;8452723;27;27690;-82
2022/09/19 22:09:07;;;;;;;;;;;;;;;;;;8453420;27;28168;-82
2022/09/19 22:13:07;;;;;;;;;;;;;;;;;;8463155;27;28483;-80
2022/09/19 22:17:07;;;;;;;;;;;;;;;;;;8456671;27;28584;-79
2022/09/19 22:21:07;;;;;;;;;;;;;;;;;;8453802;27;28004;-80
2022/09/19 22:25:07;;;;;;;;;;;;;;;;;;8453265;27;28413;-81
2022/09/19 22:29:07;;;;;;;;;;;;;;;;;;8464461;27;28672;-80
2022/09/19 22:33:07;;;;;;;;;;;;;;;;;;8459738;27;28022;-81
2022/09/19 22:37:08;;;;;;;;;;;;;;;;;;8460946;27;28774;-79
2022/09/19 22:41:09;;;;;;;;;;;;;;;;;;8463116;27;28275;-78
2022/09/19 22:45:09;;;;;;;;;;;;;;;;;;8461489;27;29287;-79
2022/09/19 22:49:09;;;;;;;;;;;;;;;;;;8460471;27;27697;-81
2022/09/19 22:53:10;;;;;;;;;;;;;;;;;;8459468;27;28270;-81
2022/09/19 22:57:10;;;;;;;;;;;;;;;;;;8456427;27;27285;-79
2022/09/19 23:01:10;;;;;;;;;;;;;;;;;;8456621;27;28339;-79
2022/09/19 23:05:10;;;;;;;;;;;;;;;;;;8452251;27;27274;-81
2022/09/19 23:09:11;;;;;;;;;;;;;;;;;;8454821;27;28165;-79
2022/09/19 23:17:30;;;;;;;;;;;;;;;;;;8458413;27;27625;-78
2022/09/19 23:21:30;;;;;;;;;;;;;;;;;;8458552;27;28477;-80
2022/09/19 23:25:31;;;;;;;;;;;;;;;;;;8455693;27;28586;-80
2022/09/19 23:29:33;;;;;;;;;;;;;;;;;;8450436;27;27572;-78
2022/09/19 23:33:33;;;;;;;;;;;;;;;;;;8461919;27;28233;-83
2022/09/19 23:37:33;;;;;;;;;;;;;;;;;;8451595;27;28593;-80
2022/09/19 23:41:33;;;;;;;;;;;;;;;;;;8452109;27;28231;-81
2022/09/19 23:45:33;;;;;;;;;;;;;;;;;;8457545;27;27450;-82
2022/09/19 23:49:33;;;;;;;;;;;;;;;;;;8452820;27;28146;-81
2022/09/19 23:53:34;;;;;;;;;;;;;;;;;;8457747;27;28581;-82
2022/09/19 23:57:34;;;;;;;;;;;;;;;;;;8451721;27;27561;-81
